Time;durP1;ratioP1;P1;durP2;ratioP2;P2;SDS_P1;SDS_P2;PMS_P1;PMS_P2;Temp;Humidity;BMP_temperature;BMP_pressure;BME280_temperature;BME280_humidity;BME280_pressure;Samples;Min_cycle;Max_cycle;Signal;HPM_P1;HPM_P2
2022/12/22 03:32:42;;;;;;;84.75;14.40;;;6.60;99.90;;;;;;21188329;28;20088;-79
2022/12/22 03:53:03;;;;;;;13.57;6.20;;;6.50;99.90;;;;;;21013916;22;20314;-78
2022/12/22 04:03:04;;;;;;;8.63;3.70;;;6.80;99.90;;;;;;20918979;28;20043;-77
2022/12/22 04:13:05;;;;;;;7.43;2.40;;;7.40;99.90;;;;;;20899711;28;20514;-78
2022/12/22 04:23:05;;;;;;;6.30;2.00;;;7.80;99.90;;;;;;20881559;28;20037;-78
2022/12/22 04:33:06;;;;;;;10.63;4.87;;;8.20;99.90;;;;;;20918765;28;20032;-78
2022/12/22 04:43:07;;;;;;;7.63;3.53;;;7.80;99.90;;;;;;20894037;28;20033;-79
2022/12/22 04:53:08;;;;;;;9.80;4.63;;;8.00;99.90;;;;;;20876282;28;20033;-78
2022/12/22 05:03:09;;;;;;;10.90;5.17;;;7.90;99.90;;;;;;20903773;28;20044;-78
2022/12/22 05:13:09;;;;;;;7.70;2.87;;;7.60;99.90;;;;;;20899743;28;20127;-78
2022/12/22 05:23:10;;;;;;;13.53;4.97;;;7.50;99.90;;;;;;20918067;28;20031;-78
2022/12/22 05:33:11;;;;;;;7.88;2.83;;;7.70;99.90;;;;;;20915466;28;20119;-78
2022/12/22 05:43:12;;;;;;;6.40;2.20;;;8.10;99.90;;;;;;20908791;28;20438;-77
2022/12/22 05:53:13;;;;;;;4.03;1.70;;;8.50;99.90;;;;;;20870244;28;20035;-77
2022/12/22 06:03:13;;;;;;;6.23;1.03;;;8.90;99.90;;;;;;20911595;28;20065;-78
2022/12/22 06:13:15;;;;;;;5.57;2.10;;;9.00;99.90;;;;;;20894472;28;20472;-78
2022/12/22 06:23:15;;;;;;;5.68;1.33;;;9.20;99.90;;;;;;20912534;28;20041;-78
2022/12/22 06:33:16;;;;;;;10.83;1.40;;;9.00;99.90;;;;;;20893946;28;20622;-78
2022/12/22 06:43:17;;;;;;;13.63;1.70;;;9.60;99.90;;;;;;20909929;28;20033;-77
2022/12/22 06:53:18;;;;;;;8.07;1.20;;;9.40;99.90;;;;;;20915357;28;20044;-78
2022/12/22 07:03:18;;;;;;;8.30;1.30;;;9.30;99.90;;;;;;20886033;28;20149;-78
2022/12/22 07:13:19;;;;;;;13.80;1.80;;;9.20;99.90;;;;;;20856299;28;20036;-77
2022/12/22 07:23:20;;;;;;;10.73;1.33;;;9.20;99.90;;;;;;20832118;28;20032;-78
2022/12/22 07:33:21;;;;;;;11.37;2.63;;;9.40;99.90;;;;;;20879554;28;20032;-78
2022/12/22 07:43:21;;;;;;;9.53;1.10;;;9.30;99.90;;;;;;20910454;28;20573;-77
2022/12/22 07:53:22;;;;;;;5.50;1.43;;;9.20;99.90;;;;;;20927127;28;20044;-78
2022/12/22 08:03:23;;;;;;;6.60;2.07;;;9.30;99.90;;;;;;20906285;28;20040;-78
2022/12/22 08:13:24;;;;;;;14.97;4.57;;;9.40;99.90;;;;;;20881516;28;20029;-78
2022/12/22 08:23:24;;;;;;;9.03;1.77;;;9.40;99.90;;;;;;20838188;28;20430;-78
2022/12/22 08:33:25;;;;;;;5.63;0.90;;;9.80;99.90;;;;;;20835484;28;20116;-78
2022/12/22 08:43:27;;;;;;;5.10;1.00;;;10.60;99.90;;;;;;20896345;28;20033;-78
2022/12/22 08:53:28;;;;;;;6.88;1.33;;;10.90;99.90;;;;;;20917064;28;20123;-78
2022/12/22 09:03:29;;;;;;;6.50;1.33;;;10.70;99.90;;;;;;20916461;28;20110;-77
2022/12/22 09:13:30;;;;;;;3.83;1.50;;;10.80;99.90;;;;;;20915485;28;20552;-78
2022/12/22 09:23:31;;;;;;;12.47;1.37;;;11.10;99.90;;;;;;20896192;28;20052;-77
2022/12/22 09:33:32;;;;;;;;;;;11.50;99.90;;;;;;20913744;28;20029;-78
2022/12/22 09:53:38;;;;;;;14.20;1.67;;;11.80;99.90;;;;;;21089616;22;20105;-79
2022/12/22 10:03:59;;;;;;;9.97;1.53;;;12.00;99.90;;;;;;21084375;28;20040;-78
2022/12/22 10:14:01;;;;;;;4.80;0.93;;;12.00;99.90;;;;;;21013122;28;20032;-78
2022/12/22 10:24:34;;;;;;;7.28;1.52;;;12.80;99.90;;;;;;20997670;28;20037;-78
2022/12/22 10:34:35;;;;;;;14.35;1.42;;;13.40;99.90;;;;;;20997043;28;20075;-79
2022/12/22 10:44:37;;;;;;;8.13;1.27;;;12.70;99.90;;;;;;20999231;28;20485;-78
2022/12/22 10:54:47;;;;;;;7.72;1.45;;;12.30;99.90;;;;;;21093289;28;20494;-78
2022/12/22 11:04:49;;;;;;;13.02;1.58;;;12.00;99.90;;;;;;21099706;28;20114;-78
2022/12/22 11:15:08;;;;;;;12.23;1.60;;;12.00;99.90;;;;;;21095557;28;20025;-79
2022/12/22 11:25:31;;;;;;;14.05;2.30;;;12.10;99.90;;;;;;21077885;28;20066;-79
2022/12/22 11:35:55;;;;;;;;;;;12.20;99.90;;;;;;21097210;28;20035;-79
2022/12/22 11:46:02;;;;;;;18.38;2.00;;;12.30;99.90;;;;;;21013944;28;19916;-79
2022/12/22 11:56:21;;;;;;;23.02;3.35;;;12.30;99.90;;;;;;21001646;28;20044;-80
2022/12/22 12:06:49;;;;;;;14.40;2.55;;;12.20;99.90;;;;;;21016842;28;20089;-80
2022/12/22 12:17:49;;;;;;;13.90;1.95;;;11.90;99.90;;;;;;21099025;28;20674;-79
2022/12/22 12:28:14;;;;;;;13.98;2.05;;;11.50;99.90;;;;;;21011125;28;20113;-77
2022/12/22 12:38:32;;;;;;;14.70;2.28;;;12.30;99.90;;;;;;21080656;28;20028;-78
2022/12/22 12:48:33;;;;;;;17.27;2.20;;;12.80;99.90;;;;;;21095894;28;20032;-78
2022/12/22 12:58:34;;;;;;;14.80;2.37;;;12.80;99.90;;;;;;21097695;28;20030;-79
2022/12/22 13:08:49;;;;;;;18.73;1.70;;;13.30;99.90;;;;;;21096414;28;20047;-78
2022/12/22 13:18:50;;;;;;;8.32;1.90;;;13.40;99.90;;;;;;21090130;28;20096;-79
2022/12/22 13:28:58;;;;;;;8.33;1.40;;;13.10;99.90;;;;;;21089630;28;20024;-78
2022/12/22 13:39:10;;;;;;;8.90;2.10;;;12.80;99.90;;;;;;21090346;28;20035;-78
2022/12/22 13:49:16;;;;;;;12.63;3.10;;;12.90;99.90;;;;;;21087649;28;20056;-79
2022/12/22 13:59:28;;;;;;;8.10;1.63;;;12.80;99.90;;;;;;21088035;28;20040;-78
2022/12/22 14:09:29;;;;;;;10.80;1.73;;;12.50;99.90;;;;;;21088478;28;20106;-79
2022/12/22 14:19:33;;;;;;;15.83;2.47;;;12.40;99.90;;;;;;21084360;28;20115;-78
2022/12/22 14:29:34;;;;;;;11.65;2.20;;;12.20;99.90;;;;;;21099194;28;20028;-78
2022/12/22 14:39:35;;;;;;;10.23;1.90;;;12.00;99.90;;;;;;21101574;28;20114;-78
2022/12/22 14:49:47;;;;;;;8.37;1.63;;;11.90;99.90;;;;;;21081457;28;20035;-78
2022/12/22 15:00:02;;;;;;;;;;;11.70;99.90;;;;;;21104621;28;20035;-78
2022/12/22 15:10:03;;;;;;;13.52;2.92;;;11.60;99.90;;;;;;21100407;28;19919;-78
2022/12/22 15:20:05;;;;;;;40.03;11.83;;;11.60;99.90;;;;;;21100901;28;20036;-78
2022/12/22 15:30:07;;;;;;;20.23;7.30;;;11.60;99.90;;;;;;21100387;28;20371;-78
2022/12/22 15:40:20;;;;;;;16.38;5.78;;;11.60;99.90;;;;;;21097299;28;20441;-79
2022/12/22 15:50:42;;;;;;;6.28;1.48;;;11.50;99.90;;;;;;21099260;22;20046;-77
2022/12/22 16:00:42;;;;;;;10.23;1.90;;;11.60;99.90;;;;;;21088918;28;20462;-77
2022/12/22 16:10:44;;;;;;;9.23;1.57;;;11.50;99.90;;;;;;21025443;28;20270;-77
2022/12/22 16:20:49;;;;;;;8.18;1.60;;;11.20;99.90;;;;;;20999013;28;20032;-77
2022/12/22 16:30:50;;;;;;;11.32;2.10;;;11.00;99.90;;;;;;20999982;28;20084;-76
2022/12/22 16:40:52;;;;;;;14.68;2.67;;;10.80;99.90;;;;;;20998743;28;20103;-77
2022/12/22 16:50:53;;;;;;;12.57;2.53;;;10.70;99.90;;;;;;20985330;28;20032;-77
2022/12/22 17:00:54;;;;;;;12.63;3.10;;;10.50;99.90;;;;;;20997921;28;20036;-77
2022/12/22 17:10:57;;;;;;;13.73;3.27;;;10.20;99.90;;;;;;20967570;28;20610;-78
2022/12/22 17:20:59;;;;;;;15.98;2.05;;;10.10;99.90;;;;;;20993319;28;20485;-77
2022/12/22 17:31:01;;;;;;;24.55;8.02;;;10.10;99.90;;;;;;20976100;28;20048;-78
2022/12/22 17:41:02;;;;;;;15.00;2.37;;;9.90;99.90;;;;;;20978575;28;20044;-78
2022/12/22 17:51:02;;;;;;;8.03;2.07;;;9.80;99.90;;;;;;20961204;28;20024;-77
2022/12/22 18:01:03;;;;;;;10.77;1.83;;;9.70;99.90;;;;;;20947202;28;20024;-78
2022/12/22 18:11:04;;;;;;;11.03;1.93;;;9.60;99.90;;;;;;20942657;28;20028;-80
2022/12/22 18:21:07;;;;;;;25.47;2.83;;;9.40;99.90;;;;;;20937627;28;20075;-78
2022/12/22 18:31:08;;;;;;;9.60;2.17;;;9.30;99.90;;;;;;20951420;28;20043;-79
2022/12/22 18:41:14;;;;;;;3.17;1.63;;;9.10;99.90;;;;;;20948234;28;20056;-78
2022/12/22 18:51:19;;;;;;;12.05;4.45;;;9.00;99.90;;;;;;20951078;28;20538;-79
2022/12/22 19:01:25;;;;;;;12.68;4.65;;;9.00;99.90;;;;;;20954320;28;20033;-79
2022/12/22 19:11:28;;;;;;;9.98;3.35;;;8.80;99.90;;;;;;20965985;28;20037;-77
2022/12/22 19:21:29;;;;;;;10.75;1.67;;;8.60;99.90;;;;;;20959663;28;20036;-79
2022/12/22 19:31:35;;;;;;;12.27;5.50;;;8.70;99.90;;;;;;20960115;28;20017;-77
2022/12/22 19:41:43;;;;;;;11.07;4.32;;;8.90;99.90;;;;;;20949062;28;20111;-77
2022/12/22 19:51:45;;;;;;;7.72;2.08;;;8.90;99.90;;;;;;20944663;28;20085;-79
2022/12/22 20:01:45;;;;;;;8.85;2.70;;;9.10;99.90;;;;;;20956061;28;20079;-79
2022/12/22 20:11:46;;;;;;;11.40;4.03;;;9.10;99.90;;;;;;20956824;28;20017;-79
2022/12/22 20:21:47;;;;;;;12.57;5.03;;;9.10;99.90;;;;;;20920196;28;20037;-79
2022/12/22 20:31:48;;;;;;;18.83;5.27;;;9.10;99.90;;;;;;21079608;28;20034;-78
2022/12/22 20:41:50;;;;;;;7.70;2.10;;;8.80;99.90;;;;;;20994948;28;20078;-78
2022/12/22 20:51:51;;;;;;;5.30;1.35;;;9.20;99.90;;;;;;20955913;28;20037;-81
2022/12/22 21:01:52;;;;;;;3.00;1.03;;;9.40;99.90;;;;;;20966003;28;20103;-79
2022/12/22 21:11:52;;;;;;;1.30;0.53;;;9.60;99.90;;;;;;20952056;28;20032;-79
2022/12/22 21:21:53;;;;;;;3.63;0.87;;;9.70;99.90;;;;;;20964487;28;20027;-79
2022/12/22 21:31:54;;;;;;;6.43;2.90;;;9.60;99.90;;;;;;20992320;28;20028;-80
2022/12/22 21:42:03;;;;;;;3.50;1.83;;;9.60;99.90;;;;;;21003469;28;20067;-80
2022/12/22 21:52:04;;;;;;;3.65;1.92;;;9.40;99.90;;;;;;21073885;22;20048;-77
2022/12/22 22:02:14;;;;;;;4.00;0.77;;;9.30;99.90;;;;;;21083269;28;20039;-78
2022/12/22 22:12:35;;;;;;;1.77;0.70;;;9.30;99.90;;;;;;21060193;28;20025;-78
2022/12/22 22:22:36;;;;;;;3.72;0.63;;;9.20;99.90;;;;;;20985376;28;20028;-78
2022/12/22 22:32:37;;;;;;;2.00;0.67;;;9.20;99.90;;;;;;21031810;28;20061;-78
2022/12/22 22:42:38;;;;;;;1.57;0.60;;;9.30;99.90;;;;;;21086607;28;20579;-79
2022/12/22 22:52:38;;;;;;;6.70;2.50;;;9.20;99.90;;;;;;21029013;28;20028;-78
2022/12/22 23:02:39;;;;;;;2.00;0.63;;;9.10;99.90;;;;;;21005585;28;20037;-78
2022/12/22 23:12:40;;;;;;;0.37;0.30;;;9.00;99.90;;;;;;21025383;28;20036;-79
2022/12/22 23:22:41;;;;;;;0.43;0.30;;;9.30;99.90;;;;;;21010891;28;20110;-77
2022/12/22 23:32:41;;;;;;;1.50;0.67;;;9.50;99.90;;;;;;21003954;28;20157;-78
2022/12/22 23:42:42;;;;;;;3.17;0.80;;;9.50;99.90;;;;;;21002581;28;20037;-78
2022/12/22 23:52:43;;;;;;;1.90;0.93;;;9.20;99.90;;;;;;21002448;28;20432;-78
